ENAT

Alta Airport

Alta, Norway
METAR ENAT 170950Z 15010KT 110V180 9999 -SN FEW021 SCT029 M08/M13 Q1004 RMK WIND 700FT 18023KT
Observed Flight Rules
Jan-17 @ 09:50 UTC (48 minutes ago) Visual Flight Rules
Wind Visibility Clouds Conditions
150° at 10 knots 10,000+ meters
  • Few at 2,100' AGL
  • Scattered at 2,900' AGL
  • Light Snow
Temperatures Readings
Current -8°C / 18°F
Dewpoint -13°C / 9°F
Humidity 68%
Altimeter 29.65" Hg
Pressure 1004 hPa
Elevation 3
METAR ENAT 170950Z 15010KT 110V180 9999 -SN FEW021 SCT029 M08/M13 Q1004 RMK WIND 700FT 18023KT
Observed Flight Rules
Jan-17 @ 09:50 UTC
(48 minutes ago)
VFR
Wind Visibility
150° at 10 knots 10,000+ meters
Clouds
  • Few at 2,100' AGL
  • Scattered at 2,900' AGL
Conditions
  • Light Snow
Temperature Dewpoint
-8°C / 18°F -13°C / 9°F
Humidity Altimeter Pressure
68% 29.65" Hg 1004 hPa